Sanpo Maru No.5 — JL6343 — position and weather

sailwx.info

Track history (hours):
 
Tides and Currents Weather Stations Pressure Air Temp Water Temp Dewpoint Dewpoint Depression Visibility Wind Speed Wind Dir Waves Ship Positions

Sanpo Maru No.5

Last reported at 2015-May-27 14:26 UTC. Time now 2015-May-27 16:02 UTC.
Position N 33°58' E 130°44'.

Length 71 m; draft 4.5 m.

Type: Ship. MMSI: 431500283.

Date/timePositionNaut miles runAvg speedWind from/ knotsBaromVisibWave heightAir tempDewpointWater temp
2015-May-27 14:26N 33°58' E 130°44'28 0.7
2015-May-25 23:18N 33°38' E 130°21'0 0.0
2015-May-25 22:33N 33°38' E 130°21'0 0.0
2015-May-25 21:30N 33°38' E 130°21'0 0.0
2015-May-25 20:33N 33°38' E 130°21'0 0.1
2015-May-25 19:27N 33°37' E 130°21'0 0.0
2015-May-25 18:33N 33°37' E 130°21'0 0.0
2015-May-25 17:30N 33°37' E 130°21'0 0.0
2015-May-25 16:33N 33°37' E 130°21'0 0.0
2015-May-25 15:33N 33°38' E 130°21'0 0.4
2015-May-25 14:33N 33°38' E 130°21'8 8.4
2015-May-25 13:33N 33°46' E 130°18'1210.5
2015-May-25 12:24N 33°56' E 130°26'1010.8
2015-May-25 11:30N 33°57' E 130°37'  
2015-May-23 04:33N 33°46' E 130°20'9 8.7
2015-May-23 03:33N 33°38' E 130°21'2 2.3
2015-May-23 02:31N 33°36' E 130°23'0 0.0
2015-May-23 01:31N 33°36' E 130°23'0 0.0
2015-May-23 00:32N 33°36' E 130°23'0 0.0
2015-May-22 23:32N 33°36' E 130°23'2 1.8
2015-May-22 22:24N 33°38' E 130°21'0 0.1
2015-May-22 21:27N 33°38' E 130°21'0 0.1
2015-May-22 20:33N 33°38' E 130°21'0 0.0
2015-May-22 19:24N 33°38' E 130°21'0 0.0
2015-May-22 18:33N 33°38' E 130°21'0 0.0
2015-May-22 17:33N 33°38' E 130°21'4 3.6
2015-May-22 16:33N 33°39' E 130°17'9 9.5
2015-May-22 15:33N 33°49' E 130°20'20 9.8
2015-May-22 13:31N 33°58' E 130°41'0 0.0
2015-May-21 06:19N 33°57' E 130°41'1910.9
2015-May-21 04:33N 33°47' E 130°21'9 9.1
2015-May-21 03:33N 33°38' E 130°19'3 3.4
2015-May-21 02:32N 33°36' E 130°23'0 0.0
2015-May-21 01:32N 33°36' E 130°23'0 0.0
2015-May-21 00:32N 33°36' E 130°23'0 0.0
2015-May-20 23:32N 33°36' E 130°23'2 1.8
2015-May-20 22:25N 33°38' E 130°21'0 0.0
2015-May-20 21:31N 33°38' E 130°21'0 0.0
2015-May-20 20:25N 33°38' E 130°21'0 0.1
2015-May-20 19:28N 33°38' E 130°21'0 0.0
2015-May-20 18:31N 33°38' E 130°21'0 0.0
2015-May-20 17:27N 33°38' E 130°21'6 7.0
2015-May-20 16:33N 33°42' E 130°16'1110.3
2015-May-20 15:28N 33°53' E 130°22'13 9.8
2015-May-20 14:07N 33°57' E 130°37'9 0.3
2015-May-19 05:04N 33°53' E 130°27'611.8
2015-May-19 04:32N 33°49' E 130°23'1010.3
2015-May-19 03:33N 33°39' E 130°17'5 5.1
2015-May-19 02:29N 33°36' E 130°23'0 0.0
2015-May-19 01:32N 33°36' E 130°23'0 0.0
2015-May-19 00:32N 33°36' E 130°23'0 0.0
2015-May-18 23:29N 33°36' E 130°23'2 1.9
2015-May-18 22:33N 33°37' E 130°21'0 0.0
2015-May-18 21:33N 33°37' E 130°21'0 0.0
2015-May-18 20:33N 33°37' E 130°21'0 0.0
2015-May-18 19:33N 33°37' E 130°21'0 0.1
2015-May-18 18:34N 33°37' E 130°21'0 0.0
2015-May-18 17:34N 33°37' E 130°21'0 0.0
2015-May-18 16:33N 33°37' E 130°21'0 0.1
2015-May-18 15:30N 33°37' E 130°21'0 0.0
2015-May-18 14:30N 33°37' E 130°21'2 2.1
2015-May-18 13:33N 33°38' E 130°19'9 9.1
2015-May-18 12:33N 33°47' E 130°19'21 9.6
2015-May-18 10:22N 33°58' E 130°41'  
Track history (hours):
 
Tides and Currents Weather Stations Pressure Air Temp Water Temp Dewpoint Dewpoint Depression Visibility Wind Speed Wind Dir Waves Ship Positions

Sanpo Maru No.5

Last reported at 2015-May-27 14:26 UTC. Time now 2015-May-27 16:02 UTC.
Position N 33°58' E 130°44'.

Length 71 m; draft 4.5 m.

Type: Ship. MMSI: 431500283.

Date/timePositionNaut miles runAvg speedWind from/ knotsBaromVisibWave heightAir tempDewpointWater temp
2015-May-27 14:26N 33°58' E 130°44'28 0.7
2015-May-25 23:18N 33°38' E 130°21'0 0.0
2015-May-25 22:33N 33°38' E 130°21'0 0.0
2015-May-25 21:30N 33°38' E 130°21'0 0.0
2015-May-25 20:33N 33°38' E 130°21'0 0.1
2015-May-25 19:27N 33°37' E 130°21'0 0.0
2015-May-25 18:33N 33°37' E 130°21'0 0.0
2015-May-25 17:30N 33°37' E 130°21'0 0.0
2015-May-25 16:33N 33°37' E 130°21'0 0.0
2015-May-25 15:33N 33°38' E 130°21'0 0.4
2015-May-25 14:33N 33°38' E 130°21'8 8.4
2015-May-25 13:33N 33°46' E 130°18'1210.5
2015-May-25 12:24N 33°56' E 130°26'1010.8
2015-May-25 11:30N 33°57' E 130°37'  
2015-May-23 04:33N 33°46' E 130°20'9 8.7
2015-May-23 03:33N 33°38' E 130°21'2 2.3
2015-May-23 02:31N 33°36' E 130°23'0 0.0
2015-May-23 01:31N 33°36' E 130°23'0 0.0
2015-May-23 00:32N 33°36' E 130°23'0 0.0
2015-May-22 23:32N 33°36' E 130°23'2 1.8
2015-May-22 22:24N 33°38' E 130°21'0 0.1
2015-May-22 21:27N 33°38' E 130°21'0 0.1
2015-May-22 20:33N 33°38' E 130°21'0 0.0
2015-May-22 19:24N 33°38' E 130°21'0 0.0
2015-May-22 18:33N 33°38' E 130°21'0 0.0
2015-May-22 17:33N 33°38' E 130°21'4 3.6
2015-May-22 16:33N 33°39' E 130°17'9 9.5
2015-May-22 15:33N 33°49' E 130°20'20 9.8
2015-May-22 13:31N 33°58' E 130°41'0 0.0
2015-May-21 06:19N 33°57' E 130°41'1910.9
2015-May-21 04:33N 33°47' E 130°21'9 9.1
2015-May-21 03:33N 33°38' E 130°19'3 3.4
2015-May-21 02:32N 33°36' E 130°23'0 0.0
2015-May-21 01:32N 33°36' E 130°23'0 0.0
2015-May-21 00:32N 33°36' E 130°23'0 0.0
2015-May-20 23:32N 33°36' E 130°23'2 1.8
2015-May-20 22:25N 33°38' E 130°21'0 0.0
2015-May-20 21:31N 33°38' E 130°21'0 0.0
2015-May-20 20:25N 33°38' E 130°21'0 0.1
2015-May-20 19:28N 33°38' E 130°21'0 0.0
2015-May-20 18:31N 33°38' E 130°21'0 0.0
2015-May-20 17:27N 33°38' E 130°21'6 7.0
2015-May-20 16:33N 33°42' E 130°16'1110.3
2015-May-20 15:28N 33°53' E 130°22'13 9.8
2015-May-20 14:07N 33°57' E 130°37'9 0.3
2015-May-19 05:04N 33°53' E 130°27'611.8
2015-May-19 04:32N 33°49' E 130°23'1010.3
2015-May-19 03:33N 33°39' E 130°17'5 5.1
2015-May-19 02:29N 33°36' E 130°23'0 0.0
2015-May-19 01:32N 33°36' E 130°23'0 0.0
2015-May-19 00:32N 33°36' E 130°23'0 0.0
2015-May-18 23:29N 33°36' E 130°23'2 1.9
2015-May-18 22:33N 33°37' E 130°21'0 0.0
2015-May-18 21:33N 33°37' E 130°21'0 0.0
2015-May-18 20:33N 33°37' E 130°21'0 0.0
2015-May-18 19:33N 33°37' E 130°21'0 0.1
2015-May-18 18:34N 33°37' E 130°21'0 0.0
2015-May-18 17:34N 33°37' E 130°21'0 0.0
2015-May-18 16:33N 33°37' E 130°21'0 0.1
2015-May-18 15:30N 33°37' E 130°21'0 0.0
2015-May-18 14:30N 33°37' E 130°21'2 2.1
2015-May-18 13:33N 33°38' E 130°19'9 9.1
2015-May-18 12:33N 33°47' E 130°19'21 9.6
2015-May-18 10:22N 33°58' E 130°41'  

Dump ship's entire track history